createdAt,value
2019-01-25T00:00:13.958Z,0.00
2019-01-25T00:01:34.947Z,0.00
2019-01-25T00:02:13.928Z,0.00
2019-01-25T00:03:13.904Z,0.00
2019-01-25T00:04:13.900Z,0.00
2019-01-25T00:05:13.874Z,0.00
2019-01-25T00:06:13.868Z,0.00
2019-01-25T00:07:34.855Z,0.00
2019-01-25T00:08:13.837Z,0.00
2019-01-25T00:09:13.818Z,0.00
2019-01-25T00:10:13.822Z,0.00
2019-01-25T00:11:13.789Z,0.00
2019-01-25T00:12:13.780Z,0.00
2019-01-25T00:13:34.776Z,0.00
2019-01-25T00:14:13.741Z,0.00
2019-01-25T00:15:13.734Z,0.00
2019-01-25T00:16:13.723Z,0.00
2019-01-25T00:17:13.779Z,0.00
2019-01-25T00:18:13.701Z,0.00
2019-01-25T00:19:34.685Z,0.00
2019-01-25T00:20:13.661Z,0.00
2019-01-25T00:21:13.654Z,0.00
2019-01-25T00:22:13.631Z,0.00
2019-01-25T00:23:13.628Z,0.00
2019-01-25T00:24:13.609Z,0.00
2019-01-25T00:25:34.591Z,0.00
2019-01-25T00:26:13.576Z,0.00
2019-01-25T00:27:13.565Z,0.00
2019-01-25T00:28:13.545Z,0.00
2019-01-25T00:29:13.538Z,0.00
2019-01-25T00:30:13.519Z,0.00
2019-01-25T00:31:34.503Z,0.00
2019-01-25T00:32:13.533Z,0.00
2019-01-25T00:33:13.471Z,0.00
2019-01-25T00:34:13.458Z,0.00
2019-01-25T00:35:13.455Z,0.00
2019-01-25T00:36:13.487Z,0.00
2019-01-25T00:37:34.417Z,0.00
2019-01-25T00:38:13.407Z,0.00
2019-01-25T00:39:13.379Z,0.00
2019-01-25T00:40:13.378Z,0.00
2019-01-25T00:41:13.355Z,0.00
2019-01-25T00:42:13.347Z,0.00
2019-01-25T00:43:34.331Z,0.00
2019-01-25T00:44:13.315Z,0.00
2019-01-25T00:45:13.298Z,0.00
2019-01-25T00:46:13.283Z,0.00
2019-01-25T00:47:13.276Z,0.00
2019-01-25T00:48:13.272Z,0.00
2019-01-25T00:49:34.243Z,0.00
2019-01-25T00:50:13.231Z,0.00
2019-01-25T00:51:13.216Z,0.00
2019-01-25T00:52:13.193Z,0.00
2019-01-25T00:53:13.188Z,0.00
2019-01-25T00:54:13.167Z,0.00
2019-01-25T00:55:34.150Z,0.00
2019-01-25T00:56:13.143Z,0.00
2019-01-25T00:57:13.133Z,0.00
2019-01-25T00:58:13.122Z,0.00
2019-01-25T00:59:13.089Z,0.00
2019-01-25T01:00:13.073Z,0.00
2019-01-25T01:01:34.071Z,0.00
2019-01-25T01:02:13.046Z,0.00
2019-01-25T01:03:13.050Z,0.00
2019-01-25T01:04:13.019Z,0.00
2019-01-25T01:05:13.010Z,0.00
2019-01-25T01:06:12.993Z,0.00
2019-01-25T01:07:33.982Z,0.00
2019-01-25T01:08:12.968Z,0.00
2019-01-25T01:09:12.948Z,0.00
2019-01-25T01:10:14.122Z,0.00
2019-01-25T01:11:12.918Z,0.00
2019-01-25T01:12:12.959Z,0.00
2019-01-25T01:13:33.892Z,0.00
2019-01-25T01:14:12.874Z,0.00
2019-01-25T01:15:12.862Z,0.00
2019-01-25T01:16:12.844Z,0.00
2019-01-25T01:17:12.835Z,0.00
2019-01-25T01:18:12.818Z,0.00
2019-01-25T01:19:33.806Z,0.00
2019-01-25T01:20:12.794Z,0.00
2019-01-25T01:21:12.776Z,0.00
2019-01-25T01:22:12.759Z,0.00
2019-01-25T01:23:12.746Z,0.00
2019-01-25T01:24:12.736Z,0.00
2019-01-25T01:25:33.719Z,0.00
2019-01-25T01:26:12.709Z,0.00
2019-01-25T01:27:12.686Z,0.00
2019-01-25T01:28:12.690Z,0.00
2019-01-25T01:29:12.650Z,0.00
2019-01-25T01:30:12.649Z,0.00
2019-01-25T01:31:33.645Z,0.00
2019-01-25T01:32:12.628Z,0.00
2019-01-25T01:33:12.601Z,0.00
2019-01-25T01:34:12.584Z,0.00
2019-01-25T01:35:12.565Z,0.00
2019-01-25T01:36:12.553Z,0.00
2019-01-25T01:37:33.538Z,0.00
2019-01-25T01:38:12.532Z,0.00
2019-01-25T01:39:12.524Z,0.00
2019-01-25T01:40:12.501Z,0.00
2019-01-25T01:41:12.486Z,0.00
2019-01-25T01:42:12.472Z,0.00
2019-01-25T01:43:33.456Z,0.00
2019-01-25T01:44:12.439Z,0.00
2019-01-25T01:45:12.427Z,0.00
2019-01-25T01:46:12.413Z,0.00
2019-01-25T01:47:12.386Z,0.00
2019-01-25T01:48:12.374Z,0.00
2019-01-25T01:49:33.365Z,0.00
2019-01-25T01:50:12.348Z,0.00
2019-01-25T01:51:12.326Z,0.00
2019-01-25T01:52:12.319Z,0.00
2019-01-25T01:53:12.308Z,0.00
2019-01-25T01:54:12.291Z,0.00
2019-01-25T01:55:33.278Z,0.00
2019-01-25T01:56:12.256Z,0.00
2019-01-25T01:57:12.241Z,0.00
2019-01-25T01:58:12.236Z,0.00
2019-01-25T01:59:12.211Z,0.00
2019-01-25T02:00:12.205Z,0.00
2019-01-25T02:01:33.190Z,0.00
2019-01-25T02:02:12.172Z,0.00
2019-01-25T02:03:12.180Z,0.00
2019-01-25T02:04:12.140Z,0.00
2019-01-25T02:05:12.127Z,0.00
2019-01-25T02:06:12.113Z,0.00
2019-01-25T02:07:33.116Z,0.00
2019-01-25T02:08:12.089Z,0.00
2019-01-25T02:09:12.075Z,0.00
2019-01-25T02:10:12.049Z,0.00
2019-01-25T02:11:12.039Z,0.00
2019-01-25T02:12:12.033Z,0.00
2019-01-25T02:13:33.014Z,0.00
2019-01-25T02:14:12.001Z,0.00
2019-01-25T02:15:11.994Z,0.00
2019-01-25T02:16:11.974Z,0.00
2019-01-25T02:17:11.962Z,0.00
2019-01-25T02:18:11.936Z,0.00
2019-01-25T02:19:32.926Z,0.00
2019-01-25T02:20:11.921Z,0.00
2019-01-25T02:21:11.903Z,0.00
2019-01-25T02:22:11.883Z,0.00
2019-01-25T02:23:11.867Z,0.00
2019-01-25T02:24:11.858Z,0.00
2019-01-25T02:25:32.832Z,0.00
2019-01-25T02:26:11.816Z,0.00
2019-01-25T02:27:11.814Z,0.00
2019-01-25T02:28:11.804Z,0.00
2019-01-25T02:29:11.788Z,0.00
2019-01-25T02:30:11.770Z,0.00
2019-01-25T02:31:32.759Z,0.00
2019-01-25T02:32:11.737Z,0.00
2019-01-25T02:33:11.726Z,0.00
2019-01-25T02:34:11.710Z,0.00
2019-01-25T02:35:11.710Z,0.00
2019-01-25T02:36:11.687Z,0.00
2019-01-25T02:37:32.669Z,0.00
2019-01-25T02:38:11.647Z,0.00
2019-01-25T02:39:11.629Z,0.00
2019-01-25T02:40:11.625Z,0.00
2019-01-25T02:41:11.604Z,0.00
2019-01-25T02:42:11.599Z,0.00
2019-01-25T02:43:32.572Z,0.00
2019-01-25T02:44:11.560Z,0.00
2019-01-25T02:45:11.543Z,0.00
2019-01-25T02:46:11.524Z,0.00
2019-01-25T02:47:11.521Z,0.00
2019-01-25T02:48:11.504Z,0.00
2019-01-25T02:49:32.499Z,0.00
2019-01-25T02:50:11.474Z,0.00
2019-01-25T02:51:11.456Z,0.00
2019-01-25T02:52:11.444Z,0.00
2019-01-25T02:53:11.433Z,0.00
2019-01-25T02:54:11.407Z,0.00
2019-01-25T02:55:32.412Z,0.00
2019-01-25T02:56:11.390Z,0.00
2019-01-25T02:57:11.372Z,0.00
2019-01-25T02:58:11.352Z,0.00
2019-01-25T02:59:11.334Z,0.00
2019-01-25T03:00:11.322Z,0.00
2019-01-25T03:01:32.323Z,0.00
2019-01-25T03:02:11.303Z,0.00
2019-01-25T03:03:11.298Z,0.00
2019-01-25T03:04:11.280Z,0.00
2019-01-25T03:05:11.247Z,0.00
2019-01-25T03:06:11.244Z,0.00
2019-01-25T03:07:32.228Z,0.00
2019-01-25T03:08:11.219Z,0.00
2019-01-25T03:09:11.197Z,0.00
2019-01-25T03:10:11.198Z,0.00
2019-01-25T03:11:11.177Z,0.00
2019-01-25T03:12:11.145Z,0.00
2019-01-25T03:13:32.141Z,0.00
2019-01-25T03:14:11.122Z,0.00
2019-01-25T03:15:11.111Z,0.00
2019-01-25T03:16:11.090Z,0.00
2019-01-25T03:17:11.085Z,0.00
2019-01-25T03:18:11.071Z,0.00
2019-01-25T03:19:32.046Z,0.00
2019-01-25T03:20:11.035Z,0.00
2019-01-25T03:21:11.018Z,0.00
2019-01-25T03:22:11.006Z,0.00
2019-01-25T03:23:10.994Z,0.00
2019-01-25T03:24:10.993Z,0.00
2019-01-25T03:25:31.966Z,0.00
2019-01-25T03:26:10.951Z,0.00
2019-01-25T03:27:10.928Z,0.00
2019-01-25T03:28:10.933Z,0.00
2019-01-25T03:29:10.901Z,0.00
2019-01-25T03:30:10.889Z,0.00
2019-01-25T03:31:31.881Z,0.00
2019-01-25T03:32:10.874Z,0.00
2019-01-25T03:33:10.841Z,0.00
2019-01-25T03:34:10.827Z,0.00
2019-01-25T03:35:10.816Z,0.00
2019-01-25T03:36:10.804Z,0.00
2019-01-25T03:37:31.782Z,0.00
2019-01-25T03:38:10.781Z,0.00
2019-01-25T03:39:10.762Z,0.00
2019-01-25T03:40:10.740Z,0.00
2019-01-25T03:41:10.719Z,0.00
2019-01-25T03:42:10.700Z,0.00
2019-01-25T03:43:31.701Z,0.00
2019-01-25T03:44:10.681Z,0.00
2019-01-25T03:45:10.661Z,0.00
2019-01-25T03:46:10.662Z,0.00
2019-01-25T03:47:10.631Z,0.00
2019-01-25T03:48:10.615Z,0.00
2019-01-25T03:49:31.598Z,0.00
2019-01-25T03:50:10.592Z,0.00
2019-01-25T03:51:10.589Z,0.00
2019-01-25T03:52:10.566Z,0.00
2019-01-25T03:53:10.542Z,0.00
2019-01-25T03:54:10.531Z,0.00
2019-01-25T03:55:31.527Z,0.00
2019-01-25T03:56:10.499Z,0.00
2019-01-25T03:57:10.485Z,0.00
2019-01-25T03:58:10.474Z,0.00
2019-01-25T03:59:10.455Z,0.00
2019-01-25T04:00:10.450Z,0.00
2019-01-25T04:01:31.428Z,0.00
2019-01-25T04:02:10.404Z,0.00
2019-01-25T04:03:10.388Z,0.00
2019-01-25T04:04:10.374Z,0.00
2019-01-25T04:05:10.378Z,0.00
2019-01-25T04:06:10.357Z,0.00
2019-01-25T04:07:31.343Z,0.00
2019-01-25T04:08:10.327Z,0.00
2019-01-25T04:09:10.310Z,0.00
2019-01-25T04:10:10.286Z,0.00
2019-01-25T04:11:10.272Z,0.00
2019-01-25T04:12:10.266Z,0.00
2019-01-25T04:13:31.253Z,0.00
2019-01-25T04:14:10.224Z,0.00
2019-01-25T04:15:10.219Z,0.00
2019-01-25T04:16:10.203Z,0.00
2019-01-25T04:17:10.184Z,0.00
2019-01-25T04:18:10.171Z,0.00
2019-01-25T04:19:31.161Z,0.00
2019-01-25T04:20:10.140Z,0.00
2019-01-25T04:21:10.127Z,0.00
2019-01-25T04:22:10.112Z,0.00
2019-01-25T04:23:10.099Z,0.00
2019-01-25T04:24:10.077Z,0.00
2019-01-25T04:25:31.066Z,0.00
2019-01-25T04:26:10.060Z,0.00
2019-01-25T04:27:10.037Z,0.00
2019-01-25T04:28:10.027Z,0.00
2019-01-25T04:29:10.007Z,0.00
2019-01-25T04:30:09.992Z,0.00
2019-01-25T04:31:30.978Z,0.00
2019-01-25T04:32:09.964Z,0.00
2019-01-25T04:33:09.953Z,0.00
2019-01-25T04:34:09.934Z,0.00
2019-01-25T04:35:09.919Z,0.00
2019-01-25T04:36:09.905Z,0.00
2019-01-25T04:37:30.882Z,0.00
2019-01-25T04:38:09.876Z,0.00
2019-01-25T04:39:09.857Z,0.00
2019-01-25T04:40:09.840Z,0.00
2019-01-25T04:41:11.684Z,0.00
2019-01-25T04:42:09.825Z,0.00
2019-01-25T04:43:30.795Z,0.00
2019-01-25T04:44:09.783Z,0.00
2019-01-25T04:45:09.768Z,0.00
2019-01-25T04:46:09.757Z,0.00
2019-01-25T04:47:09.737Z,0.00
2019-01-25T04:48:09.740Z,0.00
2019-01-25T04:49:30.707Z,0.00
2019-01-25T04:50:09.695Z,0.00
2019-01-25T04:51:09.674Z,0.00
2019-01-25T04:52:09.655Z,0.00
2019-01-25T04:53:09.640Z,0.00
2019-01-25T04:54:09.638Z,0.00
2019-01-25T04:55:30.634Z,0.00
2019-01-25T04:56:09.600Z,0.00
2019-01-25T04:57:09.589Z,0.00
2019-01-25T04:58:09.581Z,0.00
2019-01-25T04:59:09.560Z,0.00
2019-01-25T05:00:09.542Z,0.00
2019-01-25T05:01:30.528Z,0.00
2019-01-25T05:02:09.518Z,0.00
2019-01-25T05:03:09.505Z,0.00
2019-01-25T05:04:09.482Z,0.00
2019-01-25T05:05:09.464Z,0.00
2019-01-25T05:06:09.452Z,0.00
2019-01-25T05:07:30.441Z,0.00
2019-01-25T05:08:09.428Z,0.00
2019-01-25T05:09:09.416Z,0.00
2019-01-25T05:10:09.404Z,0.00
2019-01-25T05:11:09.375Z,0.00
2019-01-25T05:12:09.368Z,0.00
2019-01-25T05:13:31.713Z,0.00
2019-01-25T05:14:09.343Z,0.00
2019-01-25T05:15:09.345Z,0.00
2019-01-25T05:16:09.314Z,0.00
2019-01-25T05:17:09.296Z,0.00
2019-01-25T05:18:09.280Z,0.00
2019-01-25T05:19:30.262Z,0.00
2019-01-25T05:20:09.272Z,0.00
2019-01-25T05:21:09.241Z,0.00
2019-01-25T05:22:09.229Z,0.00
2019-01-25T05:23:09.207Z,0.00
2019-01-25T05:24:09.254Z,0.00
2019-01-25T05:25:30.179Z,0.00
2019-01-25T05:26:09.148Z,0.00
2019-01-25T05:27:09.143Z,0.00
2019-01-25T05:28:09.802Z,0.00
2019-01-25T05:29:09.120Z,0.00
2019-01-25T05:30:09.114Z,0.00
2019-01-25T05:31:30.100Z,0.00
2019-01-25T05:32:09.066Z,0.00
2019-01-25T05:33:09.057Z,0.00
2019-01-25T05:34:09.045Z,0.00
2019-01-25T05:35:09.520Z,0.00
2019-01-25T05:36:09.040Z,0.00
2019-01-25T05:37:30.007Z,0.00
2019-01-25T05:38:08.992Z,0.00
2019-01-25T05:39:08.970Z,0.00
2019-01-25T05:40:08.940Z,0.00
2019-01-25T05:41:08.935Z,0.00
2019-01-25T05:42:08.922Z,0.00
2019-01-25T05:43:29.912Z,0.00
2019-01-25T05:44:08.894Z,0.00
2019-01-25T05:45:08.870Z,0.00
2019-01-25T05:46:08.857Z,0.00
2019-01-25T05:47:08.843Z,0.00
2019-01-25T05:48:10.481Z,0.00
2019-01-25T05:49:29.827Z,0.00
2019-01-25T05:50:08.802Z,0.00
2019-01-25T05:51:08.787Z,0.00
2019-01-25T05:52:08.783Z,0.00
2019-01-25T05:53:08.755Z,0.00
2019-01-25T05:54:08.732Z,0.00
2019-01-25T05:55:29.730Z,0.00
2019-01-25T05:56:08.705Z,0.00
2019-01-25T05:57:08.690Z,0.00
2019-01-25T05:58:08.687Z,0.00
2019-01-25T05:59:08.662Z,0.00
2019-01-25T06:00:08.649Z,0.00
2019-01-25T06:01:29.647Z,0.00
2019-01-25T06:02:08.616Z,0.00
2019-01-25T06:03:08.610Z,0.00
2019-01-25T06:04:08.593Z,0.00
2019-01-25T06:05:08.584Z,0.00
2019-01-25T06:06:08.569Z,0.00
2019-01-25T06:07:29.553Z,0.00
2019-01-25T06:08:08.522Z,0.00
2019-01-25T06:09:08.515Z,0.00
2019-01-25T06:10:08.506Z,0.00
2019-01-25T06:11:08.496Z,0.00
2019-01-25T06:12:08.484Z,0.00
2019-01-25T06:13:29.469Z,0.00
2019-01-25T06:14:08.443Z,0.00
2019-01-25T06:15:08.426Z,0.00
2019-01-25T06:16:08.410Z,0.00
2019-01-25T06:17:08.405Z,0.00
2019-01-25T06:18:08.397Z,0.00
2019-01-25T06:19:29.373Z,0.00
2019-01-25T06:20:08.353Z,0.00
2019-01-25T06:21:08.329Z,0.00
2019-01-25T06:22:08.320Z,0.00
2019-01-25T06:23:08.310Z,0.00
2019-01-25T06:24:08.293Z,0.00
2019-01-25T06:25:29.284Z,0.00
2019-01-25T06:26:08.260Z,0.00
2019-01-25T06:27:08.239Z,0.00
2019-01-25T06:28:08.236Z,0.00
2019-01-25T06:29:08.213Z,0.00
2019-01-25T06:30:08.194Z,0.00
2019-01-25T06:31:29.201Z,0.00
2019-01-25T06:32:08.167Z,0.00
2019-01-25T06:33:08.159Z,0.00
2019-01-25T06:34:08.135Z,0.00
2019-01-25T06:35:08.123Z,0.00
2019-01-25T06:36:08.104Z,0.00
2019-01-25T06:37:29.127Z,0.00
2019-01-25T06:38:08.075Z,0.00
2019-01-25T06:39:08.069Z,0.00
2019-01-25T06:40:08.056Z,0.00
2019-01-25T06:41:08.040Z,0.00
2019-01-25T06:42:08.024Z,0.00
2019-01-25T06:43:29.003Z,0.00
2019-01-25T06:44:07.989Z,0.00
2019-01-25T06:45:07.976Z,0.00
2019-01-25T06:46:07.964Z,0.00
2019-01-25T06:47:07.941Z,0.00
2019-01-25T06:48:07.941Z,0.00
2019-01-25T06:49:28.915Z,4.00
2019-01-25T06:50:07.898Z,4.00
2019-01-25T06:51:07.881Z,0.00
2019-01-25T06:52:07.867Z,4.00
2019-01-25T06:53:07.851Z,4.00
2019-01-25T06:54:07.837Z,4.00
2019-01-25T06:55:28.823Z,4.00
2019-01-25T06:56:07.820Z,8.00
2019-01-25T06:57:07.783Z,8.00
2019-01-25T06:58:07.776Z,8.00
2019-01-25T06:59:07.758Z,8.00
2019-01-25T07:00:07.745Z,8.00
2019-01-25T07:01:28.745Z,12.00
2019-01-25T07:02:07.721Z,16.00
2019-01-25T07:03:07.694Z,16.00
2019-01-25T07:04:07.681Z,20.00
2019-01-25T07:05:07.669Z,20.00
2019-01-25T07:06:07.660Z,24.00
2019-01-25T07:07:28.650Z,28.00
2019-01-25T07:08:07.635Z,32.00
2019-01-25T07:09:07.611Z,36.00
2019-01-25T07:10:07.590Z,40.00
2019-01-25T07:11:07.581Z,44.00
2019-01-25T07:12:07.564Z,48.00
2019-01-25T07:13:28.553Z,52.00
2019-01-25T07:14:07.535Z,56.00
2019-01-25T07:15:07.525Z,60.00
2019-01-25T07:16:07.508Z,64.00
2019-01-25T07:17:07.489Z,72.00
2019-01-25T07:18:07.463Z,80.00
2019-01-25T07:19:28.457Z,88.00
2019-01-25T07:20:07.443Z,92.00
2019-01-25T07:21:07.428Z,104.00
2019-01-25T07:22:07.416Z,112.00
2019-01-25T07:23:07.403Z,124.00
2019-01-25T07:24:07.381Z,140.00
2019-01-25T07:25:28.361Z,156.00
2019-01-25T07:26:07.346Z,176.00
2019-01-25T07:27:07.332Z,196.00
2019-01-25T07:28:07.325Z,212.00
2019-01-25T07:29:07.306Z,220.00
2019-01-25T07:30:07.286Z,232.00
2019-01-25T07:31:28.280Z,240.00
2019-01-25T07:32:07.293Z,252.00
2019-01-25T07:33:07.274Z,252.00
2019-01-25T07:34:07.254Z,248.00
2019-01-25T07:35:07.213Z,248.00
2019-01-25T07:36:07.227Z,248.00
2019-01-25T07:37:28.199Z,252.00
2019-01-25T07:38:07.190Z,264.00
2019-01-25T07:39:07.163Z,276.00
2019-01-25T07:40:07.173Z,284.00
2019-01-25T07:41:07.127Z,300.00
2019-01-25T07:42:07.106Z,312.00
2019-01-25T07:43:28.153Z,316.00
2019-01-25T07:44:07.082Z,308.00
2019-01-25T07:45:07.059Z,308.00
2019-01-25T07:46:07.043Z,320.00
2019-01-25T07:47:07.033Z,340.00
2019-01-25T07:48:07.012Z,360.00
2019-01-25T07:49:28.013Z,368.00
2019-01-25T07:50:06.993Z,432.00
2019-01-25T07:51:06.964Z,464.00
2019-01-25T07:52:06.948Z,456.00
2019-01-25T07:53:06.931Z,468.00
2019-01-25T07:54:06.924Z,480.00
2019-01-25T07:55:27.914Z,456.00
2019-01-25T07:56:06.909Z,532.00
2019-01-25T07:57:06.884Z,548.00
2019-01-25T07:58:06.877Z,576.00
2019-01-25T07:59:06.852Z,628.00
2019-01-25T08:00:06.897Z,652.00
2019-01-25T08:01:27.827Z,664.00
2019-01-25T08:02:06.801Z,656.00
2019-01-25T08:03:06.790Z,652.00
2019-01-25T08:04:06.774Z,660.00
2019-01-25T08:05:06.753Z,664.00
2019-01-25T08:06:06.770Z,716.00
2019-01-25T08:07:27.723Z,744.00
2019-01-25T08:08:06.738Z,760.00
2019-01-25T08:09:06.700Z,760.00
2019-01-25T08:10:06.794Z,772.00
2019-01-25T08:11:06.664Z,764.00
2019-01-25T08:12:07.512Z,792.00
2019-01-25T08:13:27.642Z,824.00
2019-01-25T08:14:06.638Z,884.00
2019-01-25T08:15:06.609Z,920.00
2019-01-25T08:16:06.596Z,952.00
2019-01-25T08:17:06.610Z,984.00
2019-01-25T08:18:06.594Z,980.00
2019-01-25T08:19:27.551Z,984.00
2019-01-25T08:20:06.549Z,992.00
2019-01-25T08:21:06.537Z,948.00
2019-01-25T08:22:06.532Z,856.00
2019-01-25T08:23:06.490Z,988.00
2019-01-25T08:24:06.554Z,1080.00
2019-01-25T08:25:27.467Z,1148.00
2019-01-25T08:26:06.440Z,1188.00
2019-01-25T08:27:06.435Z,1212.00
2019-01-25T08:28:06.443Z,1120.00
2019-01-25T08:29:06.405Z,1172.00
2019-01-25T08:30:06.397Z,1360.00
2019-01-25T08:31:27.382Z,1424.00
2019-01-25T08:32:06.385Z,1396.00
2019-01-25T08:33:06.365Z,1452.00
2019-01-25T08:34:06.336Z,1500.00
2019-01-25T08:35:06.306Z,1496.00
2019-01-25T08:36:06.296Z,1524.00
2019-01-25T08:37:27.289Z,1600.00
2019-01-25T08:38:06.641Z,1568.00
2019-01-25T08:39:06.253Z,1760.00
2019-01-25T08:40:06.239Z,1576.00
2019-01-25T08:41:06.212Z,1756.00
2019-01-25T08:42:06.242Z,1728.00
2019-01-25T08:43:27.222Z,1528.00
2019-01-25T08:44:06.178Z,1360.00
2019-01-25T08:45:06.163Z,1596.00
2019-01-25T08:46:06.181Z,1376.00
2019-01-25T08:47:06.123Z,1688.00
2019-01-25T08:48:06.143Z,1856.00
2019-01-25T08:49:27.213Z,1996.00
2019-01-25T08:50:06.102Z,1764.00
2019-01-25T08:51:06.071Z,1792.00
2019-01-25T08:52:06.089Z,1716.00
2019-01-25T08:53:06.061Z,1632.00
2019-01-25T08:54:06.032Z,1744.00
2019-01-25T08:55:27.030Z,1760.00
2019-01-25T08:56:05.999Z,1836.00
2019-01-25T08:57:05.987Z,1460.00
2019-01-25T08:58:05.972Z,1772.00
2019-01-25T08:59:05.953Z,1676.00
2019-01-25T09:00:05.933Z,1588.00
2019-01-25T09:01:26.925Z,1620.00
2019-01-25T09:02:05.898Z,1552.00
2019-01-25T09:03:05.894Z,1564.00
2019-01-25T09:04:05.872Z,1564.00
2019-01-25T09:05:05.874Z,1532.00
2019-01-25T09:06:05.858Z,1812.00
2019-01-25T09:07:26.836Z,1708.00
2019-01-25T09:08:05.814Z,1536.00
2019-01-25T09:09:05.801Z,1452.00
2019-01-25T09:10:05.794Z,1640.00
2019-01-25T09:11:05.778Z,1804.00
2019-01-25T09:12:05.781Z,1872.00
2019-01-25T09:13:26.797Z,1880.00
2019-01-25T09:14:05.746Z,1892.00
2019-01-25T09:15:05.711Z,1892.00
2019-01-25T09:16:05.732Z,1824.00
2019-01-25T09:17:05.698Z,1764.00
2019-01-25T09:18:05.682Z,1812.00
2019-01-25T09:19:26.663Z,1976.00
2019-01-25T09:20:05.710Z,1972.00
2019-01-25T09:21:05.630Z,1944.00
2019-01-25T09:22:05.621Z,2052.00
2019-01-25T09:23:05.603Z,2208.00
2019-01-25T09:24:05.587Z,2408.00
2019-01-25T09:25:26.583Z,2460.00
2019-01-25T09:26:05.562Z,2368.00
2019-01-25T09:27:05.542Z,2352.00
2019-01-25T09:28:05.539Z,2388.00
2019-01-25T09:29:05.524Z,2496.00
2019-01-25T09:30:05.506Z,2616.00
2019-01-25T09:31:26.493Z,2724.00
2019-01-25T09:32:05.481Z,2904.00
2019-01-25T09:33:05.467Z,2988.00
2019-01-25T09:34:05.446Z,2868.00
2019-01-25T09:35:06.847Z,2760.00
2019-01-25T09:36:05.416Z,2852.00
2019-01-25T09:37:26.414Z,2672.00
2019-01-25T09:38:06.453Z,2656.00
2019-01-25T09:39:05.388Z,2848.00
2019-01-25T09:40:05.366Z,2764.00
2019-01-25T09:41:05.345Z,2648.00
2019-01-25T09:42:05.328Z,2580.00
2019-01-25T09:43:29.302Z,2612.00
2019-01-25T09:44:05.342Z,2652.00
2019-01-25T09:45:05.288Z,2624.00
2019-01-25T09:46:05.277Z,2664.00
2019-01-25T09:47:05.292Z,2784.00
2019-01-25T09:48:05.246Z,2892.00
2019-01-25T09:49:26.304Z,3192.00
2019-01-25T09:50:08.803Z,3384.00
2019-01-25T09:51:05.207Z,3552.00
2019-01-25T09:52:05.841Z,3608.00
2019-01-25T09:53:05.212Z,3616.00
2019-01-25T09:54:05.160Z,3576.00
2019-01-25T09:55:26.165Z,3492.00
2019-01-25T09:56:08.016Z,3448.00
2019-01-25T09:57:05.110Z,2756.00
2019-01-25T09:58:05.100Z,3112.00
2019-01-25T09:59:05.084Z,3268.00
2019-01-25T10:00:05.076Z,3368.00
2019-01-25T10:01:26.062Z,3416.00
2019-01-25T10:02:05.034Z,3484.00
2019-01-25T10:03:05.014Z,3700.00
2019-01-25T10:04:05.001Z,3816.00
2019-01-25T10:05:05.000Z,3920.00
2019-01-25T10:06:04.975Z,4108.00
2019-01-25T10:07:25.974Z,3968.00
2019-01-25T10:08:04.955Z,4032.00
2019-01-25T10:09:04.939Z,4008.00
2019-01-25T10:10:04.922Z,4068.00
2019-01-25T10:11:04.906Z,4216.00
2019-01-25T10:12:04.889Z,4296.00
2019-01-25T10:13:25.888Z,4408.00
2019-01-25T10:14:04.862Z,4488.00
2019-01-25T10:15:04.849Z,4024.00
2019-01-25T10:16:04.835Z,4624.00
2019-01-25T10:17:04.815Z,4720.00
2019-01-25T10:18:04.806Z,4544.00
2019-01-25T10:19:25.802Z,4568.00
2019-01-25T10:20:04.781Z,4752.00
2019-01-25T10:21:04.772Z,5204.00
2019-01-25T10:22:04.753Z,4912.00
2019-01-25T10:23:04.732Z,4652.00
2019-01-25T10:24:04.718Z,4376.00
2019-01-25T10:25:25.713Z,4656.00
2019-01-25T10:26:04.695Z,4660.00
2019-01-25T10:27:04.689Z,4356.00
2019-01-25T10:28:04.677Z,4268.00
2019-01-25T10:29:04.645Z,4276.00
2019-01-25T10:30:04.638Z,4288.00
2019-01-25T10:31:25.622Z,4184.00
2019-01-25T10:32:04.608Z,4080.00
2019-01-25T10:33:04.587Z,4160.00
2019-01-25T10:34:04.588Z,4144.00
2019-01-25T10:35:04.576Z,4212.00
2019-01-25T10:36:04.550Z,4372.00
2019-01-25T10:37:25.539Z,4552.00
2019-01-25T10:38:04.878Z,4584.00
2019-01-25T10:39:04.508Z,4360.00
2019-01-25T10:40:04.496Z,4396.00
2019-01-25T10:41:04.489Z,4352.00
2019-01-25T10:42:04.470Z,4380.00
2019-01-25T10:43:25.458Z,4360.00
2019-01-25T10:44:04.441Z,4404.00
2019-01-25T10:45:04.787Z,4560.00
2019-01-25T10:46:04.418Z,4520.00
2019-01-25T10:47:04.399Z,4372.00
2019-01-25T10:48:04.392Z,3988.00
2019-01-25T10:49:30.112Z,4000.00
2019-01-25T10:50:04.367Z,4180.00
2019-01-25T10:51:04.351Z,3972.00
2019-01-25T10:52:04.330Z,3836.00
2019-01-25T10:53:04.324Z,3656.00
2019-01-25T10:54:05.657Z,3392.00
2019-01-25T10:55:25.308Z,3344.00
2019-01-25T10:56:09.724Z,3380.00
2019-01-25T10:57:04.276Z,3404.00
2019-01-25T10:58:04.251Z,3636.00
2019-01-25T10:59:09.471Z,3888.00
2019-01-25T11:00:04.233Z,4124.00
2019-01-25T11:01:25.221Z,3996.00
2019-01-25T11:02:09.919Z,3968.00
2019-01-25T11:03:04.178Z,3960.00
2019-01-25T11:04:04.157Z,3808.00
2019-01-25T11:05:04.157Z,3532.00
2019-01-25T11:06:04.138Z,3800.00
2019-01-25T11:07:25.126Z,3772.00
2019-01-25T11:08:04.115Z,3956.00
2019-01-25T11:09:04.100Z,4488.00
2019-01-25T11:10:04.096Z,4840.00
2019-01-25T11:11:04.072Z,4912.00
2019-01-25T11:12:04.051Z,4728.00
2019-01-25T11:13:25.042Z,4712.00
2019-01-25T11:14:04.025Z,5080.00
2019-01-25T11:15:04.007Z,5000.00
2019-01-25T11:16:04.006Z,5084.00
2019-01-25T11:17:03.990Z,5232.00
2019-01-25T11:18:03.987Z,4828.00
2019-01-25T11:19:24.967Z,4908.00
2019-01-25T11:20:03.947Z,4940.00
2019-01-25T11:21:03.928Z,4912.00
2019-01-25T11:22:03.918Z,4864.00
2019-01-25T11:23:03.921Z,4576.00
2019-01-25T11:24:07.700Z,4756.00
2019-01-25T11:25:24.892Z,4800.00
2019-01-25T11:26:03.867Z,4844.00
2019-01-25T11:27:03.857Z,4960.00
2019-01-25T11:28:03.839Z,4760.00
2019-01-25T11:29:03.830Z,4600.00
2019-01-25T11:30:03.811Z,4000.00
2019-01-25T11:31:24.815Z,4064.00
2019-01-25T11:32:03.792Z,4888.00
2019-01-25T11:33:03.771Z,4772.00
2019-01-25T11:34:03.757Z,4460.00
2019-01-25T11:35:03.747Z,3344.00
2019-01-25T11:36:03.740Z,2636.00
2019-01-25T11:37:24.723Z,2476.00
2019-01-25T11:38:03.827Z,2568.00
2019-01-25T11:39:03.691Z,2968.00
2019-01-25T11:40:03.668Z,2760.00
2019-01-25T11:41:03.657Z,2380.00
2019-01-25T11:42:03.795Z,2680.00
2019-01-25T11:43:24.654Z,3088.00
2019-01-25T11:44:03.629Z,2956.00
2019-01-25T11:45:03.608Z,2800.00
2019-01-25T11:46:03.599Z,2964.00
2019-01-25T11:47:03.580Z,3048.00
2019-01-25T11:48:03.564Z,3380.00
2019-01-25T11:49:24.560Z,2944.00
2019-01-25T11:50:03.569Z,3148.00
2019-01-25T11:51:03.537Z,3288.00
2019-01-25T11:52:03.518Z,3240.00
2019-01-25T11:53:03.496Z,3236.00
2019-01-25T11:54:03.490Z,3692.00
2019-01-25T11:55:24.483Z,4096.00
2019-01-25T11:56:03.460Z,3988.00
2019-01-25T11:57:03.444Z,3752.00
2019-01-25T11:58:03.435Z,3668.00
2019-01-25T11:59:03.415Z,3752.00
2019-01-25T12:00:03.398Z,3768.00
2019-01-25T12:01:24.390Z,4104.00
2019-01-25T12:02:03.371Z,3996.00
2019-01-25T12:03:03.366Z,3224.00
2019-01-25T12:04:03.439Z,3448.00
2019-01-25T12:05:03.333Z,3152.00
2019-01-25T12:06:03.330Z,3180.00
2019-01-25T12:07:24.313Z,3200.00
2019-01-25T12:08:03.302Z,2948.00
2019-01-25T12:09:03.275Z,3072.00
2019-01-25T12:10:03.267Z,3360.00
2019-01-25T12:11:03.265Z,3440.00
2019-01-25T12:12:03.237Z,3684.00
2019-01-25T12:13:24.224Z,3612.00
2019-01-25T12:14:03.211Z,3740.00
2019-01-25T12:15:03.203Z,3596.00
2019-01-25T12:16:03.180Z,4028.00
2019-01-25T12:17:03.166Z,4112.00
2019-01-25T12:18:03.160Z,4072.00
2019-01-25T12:19:24.147Z,3852.00
2019-01-25T12:20:03.138Z,3576.00
2019-01-25T12:21:03.118Z,3176.00
2019-01-25T12:22:03.097Z,3660.00
2019-01-25T12:23:03.085Z,3616.00
2019-01-25T12:24:03.077Z,3468.00
2019-01-25T12:25:24.069Z,3508.00
2019-01-25T12:26:03.053Z,3532.00
2019-01-25T12:27:03.034Z,3248.00
2019-01-25T12:28:05.336Z,2848.00
2019-01-25T12:29:03.009Z,2744.00
2019-01-25T12:30:03.007Z,2868.00
2019-01-25T12:31:23.977Z,2852.00
2019-01-25T12:32:02.978Z,2644.00
2019-01-25T12:33:02.955Z,2456.00
2019-01-25T12:34:02.978Z,2452.00
2019-01-25T12:35:07.305Z,3008.00
2019-01-25T12:36:02.992Z,3164.00
2019-01-25T12:37:23.908Z,2900.00
2019-01-25T12:38:02.907Z,2936.00
2019-01-25T12:39:02.869Z,2804.00
2019-01-25T12:40:02.860Z,2672.00
2019-01-25T12:41:02.854Z,2692.00
2019-01-25T12:42:02.830Z,2700.00
2019-01-25T12:43:24.386Z,2840.00
2019-01-25T12:44:02.810Z,2928.00
2019-01-25T12:45:02.791Z,3108.00
2019-01-25T12:46:02.780Z,3280.00
2019-01-25T12:47:02.762Z,3388.00